sensor_id;sensor_type;location;lat;lon;timestamp;P1;durP1;ratioP1;P2;durP2;ratioP2
29200;SDS011;16244;51.956;12.980;2023-09-19T00:00:16;33.17;;;28.13;;
29200;SDS011;16244;51.956;12.980;2023-09-19T00:02:45;38.70;;;35.00;;
29200;SDS011;16244;51.956;12.980;2023-09-19T00:05:14;38.00;;;34.37;;
29200;SDS011;16244;51.956;12.980;2023-09-19T00:07:42;25.93;;;23.13;;
29200;SDS011;16244;51.956;12.980;2023-09-19T00:10:10;31.57;;;28.33;;
29200;SDS011;16244;51.956;12.980;2023-09-19T00:12:42;35.50;;;32.30;;
29200;SDS011;16244;51.956;12.980;2023-09-19T00:15:10;34.70;;;31.47;;
29200;SDS011;16244;51.956;12.980;2023-09-19T00:17:37;52.93;;;48.80;;
29200;SDS011;16244;51.956;12.980;2023-09-19T00:20:06;36.50;;;33.20;;
29200;SDS011;16244;51.956;12.980;2023-09-19T00:22:41;37.07;;;33.37;;
29200;SDS011;16244;51.956;12.980;2023-09-19T00:25:09;41.27;;;37.77;;
29200;SDS011;16244;51.956;12.980;2023-09-19T00:27:39;36.17;;;29.70;;
29200;SDS011;16244;51.956;12.980;2023-09-19T00:30:07;39.57;;;35.33;;
29200;SDS011;16244;51.956;12.980;2023-09-19T00:32:40;36.27;;;25.90;;
29200;SDS011;16244;51.956;12.980;2023-09-19T00:35:08;49.43;;;45.20;;
29200;SDS011;16244;51.956;12.980;2023-09-19T00:37:36;36.13;;;32.33;;
29200;SDS011;16244;51.956;12.980;2023-09-19T00:40:06;29.47;;;26.40;;
29200;SDS011;16244;51.956;12.980;2023-09-19T00:42:39;50.83;;;46.47;;
29200;SDS011;16244;51.956;12.980;2023-09-19T00:45:07;35.63;;;31.93;;
29200;SDS011;16244;51.956;12.980;2023-09-19T00:47:37;34.67;;;30.50;;
29200;SDS011;16244;51.956;12.980;2023-09-19T00:50:05;32.43;;;29.23;;
29200;SDS011;16244;51.956;12.980;2023-09-19T00:52:36;35.30;;;32.27;;
29200;SDS011;16244;51.956;12.980;2023-09-19T00:55:05;36.87;;;33.27;;
29200;SDS011;16244;51.956;12.980;2023-09-19T00:57:34;39.47;;;31.43;;
29200;SDS011;16244;51.956;12.980;2023-09-19T01:00:06;34.27;;;31.27;;
29200;SDS011;16244;51.956;12.980;2023-09-19T01:02:37;29.93;;;27.03;;
29200;SDS011;16244;51.956;12.980;2023-09-19T01:05:05;29.37;;;26.47;;
29200;SDS011;16244;51.956;12.980;2023-09-19T01:07:34;35.40;;;31.80;;
29200;SDS011;16244;51.956;12.980;2023-09-19T01:10:02;48.70;;;44.13;;
29200;SDS011;16244;51.956;12.980;2023-09-19T01:12:33;54.10;;;49.20;;
29200;SDS011;16244;51.956;12.980;2023-09-19T01:15:10;21.13;;;19.13;;
29200;SDS011;16244;51.956;12.980;2023-09-19T01:17:46;37.50;;;33.90;;
29200;SDS011;16244;51.956;12.980;2023-09-19T01:20:21;36.27;;;32.67;;
29200;SDS011;16244;51.956;12.980;2023-09-19T01:22:57;49.60;;;45.50;;
29200;SDS011;16244;51.956;12.980;2023-09-19T01:25:47;30.13;;;25.33;;
29200;SDS011;16244;51.956;12.980;2023-09-19T01:28:35;33.80;;;30.27;;
29200;SDS011;16244;51.956;12.980;2023-09-19T01:31:22;39.77;;;35.60;;
29200;SDS011;16244;51.956;12.980;2023-09-19T01:33:55;37.40;;;33.80;;
29200;SDS011;16244;51.956;12.980;2023-09-19T01:36:27;39.13;;;35.13;;
29200;SDS011;16244;51.956;12.980;2023-09-19T01:38:56;42.53;;;38.27;;
29200;SDS011;16244;51.956;12.980;2023-09-19T01:41:52;35.20;;;31.37;;
29200;SDS011;16244;51.956;12.980;2023-09-19T01:44:29;34.23;;;30.63;;
29200;SDS011;16244;51.956;12.980;2023-09-19T01:47:11;48.53;;;44.20;;
29200;SDS011;16244;51.956;12.980;2023-09-19T01:50:00;48.87;;;44.30;;
29200;SDS011;16244;51.956;12.980;2023-09-19T01:52:42;33.83;;;30.37;;
29200;SDS011;16244;51.956;12.980;2023-09-19T01:55:14;42.60;;;38.87;;
29200;SDS011;16244;51.956;12.980;2023-09-19T01:57:47;38.50;;;31.93;;
29200;SDS011;16244;51.956;12.980;2023-09-19T02:00:19;36.77;;;33.37;;
29200;SDS011;16244;51.956;12.980;2023-09-19T02:02:50;36.73;;;32.83;;
29200;SDS011;16244;51.956;12.980;2023-09-19T02:05:22;36.67;;;32.87;;
29200;SDS011;16244;51.956;12.980;2023-09-19T02:07:50;33.40;;;30.00;;
29200;SDS011;16244;51.956;12.980;2023-09-19T02:10:19;40.40;;;36.40;;
29200;SDS011;16244;51.956;12.980;2023-09-19T02:12:47;31.97;;;29.17;;
29200;SDS011;16244;51.956;12.980;2023-09-19T02:15:14;41.23;;;36.90;;
29200;SDS011;16244;51.956;12.980;2023-09-19T02:17:43;39.93;;;36.53;;
29200;SDS011;16244;51.956;12.980;2023-09-19T02:20:13;29.33;;;26.37;;
29200;SDS011;16244;51.956;12.980;2023-09-19T02:22:42;41.17;;;37.40;;
29200;SDS011;16244;51.956;12.980;2023-09-19T02:25:10;35.33;;;31.87;;
29200;SDS011;16244;51.956;12.980;2023-09-19T02:27:39;28.47;;;25.43;;
29200;SDS011;16244;51.956;12.980;2023-09-19T02:30:08;24.67;;;22.23;;
29200;SDS011;16244;51.956;12.980;2023-09-19T02:32:35;36.47;;;32.87;;
29200;SDS011;16244;51.956;12.980;2023-09-19T02:35:05;46.43;;;42.50;;
29200;SDS011;16244;51.956;12.980;2023-09-19T02:37:38;34.00;;;29.87;;
29200;SDS011;16244;51.956;12.980;2023-09-19T02:40:05;35.67;;;31.97;;
29200;SDS011;16244;51.956;12.980;2023-09-19T02:42:44;39.53;;;35.53;;
29200;SDS011;16244;51.956;12.980;2023-09-19T02:45:14;42.17;;;38.57;;
29200;SDS011;16244;51.956;12.980;2023-09-19T02:47:44;39.57;;;35.50;;
29200;SDS011;16244;51.956;12.980;2023-09-19T02:50:12;40.00;;;36.37;;
29200;SDS011;16244;51.956;12.980;2023-09-19T02:52:43;34.87;;;31.53;;
29200;SDS011;16244;51.956;12.980;2023-09-19T02:55:13;40.90;;;36.53;;
29200;SDS011;16244;51.956;12.980;2023-09-19T02:57:45;38.63;;;34.70;;
29200;SDS011;16244;51.956;12.980;2023-09-19T03:00:13;42.20;;;38.17;;
29200;SDS011;16244;51.956;12.980;2023-09-19T03:02:41;38.60;;;35.00;;
29200;SDS011;16244;51.956;12.980;2023-09-19T03:05:10;47.33;;;41.90;;
29200;SDS011;16244;51.956;12.980;2023-09-19T03:07:38;52.70;;;48.53;;
29200;SDS011;16244;51.956;12.980;2023-09-19T03:10:08;51.03;;;46.60;;
29200;SDS011;16244;51.956;12.980;2023-09-19T03:12:36;34.17;;;30.43;;
29200;SDS011;16244;51.956;12.980;2023-09-19T03:15:05;35.97;;;28.97;;
29200;SDS011;16244;51.956;12.980;2023-09-19T03:17:34;44.00;;;39.43;;
29200;SDS011;16244;51.956;12.980;2023-09-19T03:20:02;36.03;;;32.53;;
29200;SDS011;16244;51.956;12.980;2023-09-19T03:22:34;52.20;;;48.07;;
29200;SDS011;16244;51.956;12.980;2023-09-19T03:25:02;41.07;;;36.93;;
29200;SDS011;16244;51.956;12.980;2023-09-19T03:27:35;32.77;;;28.30;;
29200;SDS011;16244;51.956;12.980;2023-09-19T03:30:02;42.70;;;38.40;;
29200;SDS011;16244;51.956;12.980;2023-09-19T03:32:34;49.93;;;44.83;;
29200;SDS011;16244;51.956;12.980;2023-09-19T03:35:02;38.97;;;34.97;;
29200;SDS011;16244;51.956;12.980;2023-09-19T03:37:31;56.10;;;50.37;;
29200;SDS011;16244;51.956;12.980;2023-09-19T03:39:59;42.00;;;37.90;;
29200;SDS011;16244;51.956;12.980;2023-09-19T03:42:30;38.93;;;34.70;;
29200;SDS011;16244;51.956;12.980;2023-09-19T03:44:59;39.17;;;35.53;;
29200;SDS011;16244;51.956;12.980;2023-09-19T03:47:30;45.43;;;41.10;;
29200;SDS011;16244;51.956;12.980;2023-09-19T03:49:57;50.60;;;45.70;;
29200;SDS011;16244;51.956;12.980;2023-09-19T03:52:25;46.63;;;41.27;;
29200;SDS011;16244;51.956;12.980;2023-09-19T03:54:53;41.47;;;37.77;;
29200;SDS011;16244;51.956;12.980;2023-09-19T03:57:21;45.30;;;38.30;;
29200;SDS011;16244;51.956;12.980;2023-09-19T03:59:48;41.70;;;37.80;;
29200;SDS011;16244;51.956;12.980;2023-09-19T04:02:20;34.67;;;30.63;;
29200;SDS011;16244;51.956;12.980;2023-09-19T04:04:49;43.57;;;39.07;;
29200;SDS011;16244;51.956;12.980;2023-09-19T04:07:17;40.17;;;36.03;;
29200;SDS011;16244;51.956;12.980;2023-09-19T04:09:48;43.23;;;38.90;;
29200;SDS011;16244;51.956;12.980;2023-09-19T04:12:16;35.27;;;31.17;;
29200;SDS011;16244;51.956;12.980;2023-09-19T04:14:43;36.50;;;32.70;;
29200;SDS011;16244;51.956;12.980;2023-09-19T04:17:11;47.93;;;43.67;;
29200;SDS011;16244;51.956;12.980;2023-09-19T04:19:40;38.47;;;34.13;;
29200;SDS011;16244;51.956;12.980;2023-09-19T04:22:08;37.97;;;34.00;;
29200;SDS011;16244;51.956;12.980;2023-09-19T04:24:37;41.93;;;37.50;;
29200;SDS011;16244;51.956;12.980;2023-09-19T04:27:05;45.20;;;40.50;;
29200;SDS011;16244;51.956;12.980;2023-09-19T04:29:33;41.10;;;37.10;;
29200;SDS011;16244;51.956;12.980;2023-09-19T04:32:00;39.10;;;35.37;;
29200;SDS011;16244;51.956;12.980;2023-09-19T04:34:30;57.57;;;51.93;;
29200;SDS011;16244;51.956;12.980;2023-09-19T04:37:00;50.33;;;45.83;;
29200;SDS011;16244;51.956;12.980;2023-09-19T04:39:28;35.60;;;31.77;;
29200;SDS011;16244;51.956;12.980;2023-09-19T04:41:55;59.23;;;54.43;;
29200;SDS011;16244;51.956;12.980;2023-09-19T04:44:24;39.67;;;35.97;;
29200;SDS011;16244;51.956;12.980;2023-09-19T04:46:52;42.17;;;38.30;;
29200;SDS011;16244;51.956;12.980;2023-09-19T04:49:19;59.60;;;54.43;;
29200;SDS011;16244;51.956;12.980;2023-09-19T04:51:46;35.63;;;32.13;;
29200;SDS011;16244;51.956;12.980;2023-09-19T04:54:15;37.87;;;34.37;;
29200;SDS011;16244;51.956;12.980;2023-09-19T04:56:44;37.13;;;33.07;;
29200;SDS011;16244;51.956;12.980;2023-09-19T04:59:11;43.23;;;39.13;;
29200;SDS011;16244;51.956;12.980;2023-09-19T05:01:40;43.77;;;39.50;;
29200;SDS011;16244;51.956;12.980;2023-09-19T05:04:08;38.87;;;35.03;;
29200;SDS011;16244;51.956;12.980;2023-09-19T05:06:36;40.80;;;37.00;;
29200;SDS011;16244;51.956;12.980;2023-09-19T05:09:03;33.40;;;30.37;;
29200;SDS011;16244;51.956;12.980;2023-09-19T05:11:33;37.23;;;33.17;;
29200;SDS011;16244;51.956;12.980;2023-09-19T05:14:01;41.77;;;37.83;;
29200;SDS011;16244;51.956;12.980;2023-09-19T05:16:29;40.67;;;36.40;;
29200;SDS011;16244;51.956;12.980;2023-09-19T05:18:58;32.00;;;24.20;;
29200;SDS011;16244;51.956;12.980;2023-09-19T05:21:27;40.47;;;34.97;;
29200;SDS011;16244;51.956;12.980;2023-09-19T05:23:56;40.27;;;36.77;;
29200;SDS011;16244;51.956;12.980;2023-09-19T05:26:23;42.30;;;38.17;;
29200;SDS011;16244;51.956;12.980;2023-09-19T05:28:52;50.23;;;45.90;;
29200;SDS011;16244;51.956;12.980;2023-09-19T05:31:20;47.20;;;42.97;;
29200;SDS011;16244;51.956;12.980;2023-09-19T05:33:49;39.80;;;36.50;;
29200;SDS011;16244;51.956;12.980;2023-09-19T05:36:17;42.40;;;37.87;;
29200;SDS011;16244;51.956;12.980;2023-09-19T05:38:44;37.30;;;33.50;;
29200;SDS011;16244;51.956;12.980;2023-09-19T05:41:15;54.10;;;48.93;;
29200;SDS011;16244;51.956;12.980;2023-09-19T05:43:43;53.67;;;45.90;;
29200;SDS011;16244;51.956;12.980;2023-09-19T05:46:12;39.43;;;35.50;;
29200;SDS011;16244;51.956;12.980;2023-09-19T05:48:41;44.23;;;40.07;;
29200;SDS011;16244;51.956;12.980;2023-09-19T05:51:10;35.40;;;31.57;;
29200;SDS011;16244;51.956;12.980;2023-09-19T05:53:37;43.73;;;39.13;;
29200;SDS011;16244;51.956;12.980;2023-09-19T05:56:05;43.33;;;39.07;;
29200;SDS011;16244;51.956;12.980;2023-09-19T05:58:33;35.30;;;30.07;;
29200;SDS011;16244;51.956;12.980;2023-09-19T06:01:00;39.07;;;35.07;;
29200;SDS011;16244;51.956;12.980;2023-09-19T06:03:29;39.17;;;33.30;;
29200;SDS011;16244;51.956;12.980;2023-09-19T06:05:57;37.13;;;33.20;;
29200;SDS011;16244;51.956;12.980;2023-09-19T06:08:25;36.97;;;32.97;;
29200;SDS011;16244;51.956;12.980;2023-09-19T06:10:54;59.70;;;54.40;;
29200;SDS011;16244;51.956;12.980;2023-09-19T06:13:21;35.47;;;31.87;;
29200;SDS011;16244;51.956;12.980;2023-09-19T06:15:51;39.83;;;36.40;;
29200;SDS011;16244;51.956;12.980;2023-09-19T06:18:20;41.03;;;36.70;;
29200;SDS011;16244;51.956;12.980;2023-09-19T06:20:49;46.50;;;42.17;;
29200;SDS011;16244;51.956;12.980;2023-09-19T06:23:16;41.10;;;36.77;;
29200;SDS011;16244;51.956;12.980;2023-09-19T06:25:46;46.90;;;41.73;;
29200;SDS011;16244;51.956;12.980;2023-09-19T06:28:14;50.53;;;45.53;;
29200;SDS011;16244;51.956;12.980;2023-09-19T06:30:44;38.07;;;34.00;;
29200;SDS011;16244;51.956;12.980;2023-09-19T06:33:13;56.60;;;51.40;;
29200;SDS011;16244;51.956;12.980;2023-09-19T06:35:42;38.33;;;34.83;;
29200;SDS011;16244;51.956;12.980;2023-09-19T06:38:14;44.93;;;40.20;;
29200;SDS011;16244;51.956;12.980;2023-09-19T06:40:41;45.70;;;41.67;;
29200;SDS011;16244;51.956;12.980;2023-09-19T06:43:09;40.80;;;36.50;;
29200;SDS011;16244;51.956;12.980;2023-09-19T06:45:37;39.17;;;35.37;;
29200;SDS011;16244;51.956;12.980;2023-09-19T06:48:05;39.73;;;35.70;;
29200;SDS011;16244;51.956;12.980;2023-09-19T06:50:33;44.03;;;39.50;;
29200;SDS011;16244;51.956;12.980;2023-09-19T06:53:01;42.10;;;38.07;;
29200;SDS011;16244;51.956;12.980;2023-09-19T06:55:31;39.37;;;34.37;;
29200;SDS011;16244;51.956;12.980;2023-09-19T06:57:58;41.73;;;37.70;;
29200;SDS011;16244;51.956;12.980;2023-09-19T07:00:26;39.67;;;33.83;;
29200;SDS011;16244;51.956;12.980;2023-09-19T07:02:54;36.80;;;32.50;;
29200;SDS011;16244;51.956;12.980;2023-09-19T07:05:22;34.13;;;27.33;;
29200;SDS011;16244;51.956;12.980;2023-09-19T07:07:50;35.43;;;30.00;;
29200;SDS011;16244;51.956;12.980;2023-09-19T07:10:18;28.10;;;25.00;;
29200;SDS011;16244;51.956;12.980;2023-09-19T07:12:49;27.53;;;24.53;;
29200;SDS011;16244;51.956;12.980;2023-09-19T07:15:21;19.77;;;18.20;;
29200;SDS011;16244;51.956;12.980;2023-09-19T07:17:51;19.23;;;17.13;;
29200;SDS011;16244;51.956;12.980;2023-09-19T07:20:20;18.33;;;16.83;;
29200;SDS011;16244;51.956;12.980;2023-09-19T07:22:48;12.20;;;11.13;;
29200;SDS011;16244;51.956;12.980;2023-09-19T07:25:16;16.93;;;13.00;;
29200;SDS011;16244;51.956;12.980;2023-09-19T07:27:44;21.03;;;17.37;;
29200;SDS011;16244;51.956;12.980;2023-09-19T07:30:13;15.07;;;13.93;;
29200;SDS011;16244;51.956;12.980;2023-09-19T07:32:42;7.77;;;7.20;;
29200;SDS011;16244;51.956;12.980;2023-09-19T07:35:09;10.40;;;9.53;;
29200;SDS011;16244;51.956;12.980;2023-09-19T07:37:38;5.23;;;4.83;;
29200;SDS011;16244;51.956;12.980;2023-09-19T07:40:06;5.30;;;4.77;;
29200;SDS011;16244;51.956;12.980;2023-09-19T07:42:35;6.60;;;6.23;;
29200;SDS011;16244;51.956;12.980;2023-09-19T07:45:05;5.03;;;4.40;;
29200;SDS011;16244;51.956;12.980;2023-09-19T07:47:34;8.23;;;7.60;;
29200;SDS011;16244;51.956;12.980;2023-09-19T07:50:03;4.20;;;3.90;;
29200;SDS011;16244;51.956;12.980;2023-09-19T07:52:34;5.90;;;5.50;;
29200;SDS011;16244;51.956;12.980;2023-09-19T07:55:01;4.53;;;4.30;;
29200;SDS011;16244;51.956;12.980;2023-09-19T07:57:35;3.87;;;3.60;;
29200;SDS011;16244;51.956;12.980;2023-09-19T08:00:03;5.87;;;5.50;;
29200;SDS011;16244;51.956;12.980;2023-09-19T08:02:35;0.87;;;0.83;;
29200;SDS011;16244;51.956;12.980;2023-09-19T08:05:04;0.80;;;0.80;;
29200;SDS011;16244;51.956;12.980;2023-09-19T08:07:35;2.20;;;0.83;;
29200;SDS011;16244;51.956;12.980;2023-09-19T08:10:03;0.50;;;0.50;;
29200;SDS011;16244;51.956;12.980;2023-09-19T08:12:33;2.60;;;2.03;;
29200;SDS011;16244;51.956;12.980;2023-09-19T08:15:02;1.17;;;0.70;;
29200;SDS011;16244;51.956;12.980;2023-09-19T08:17:33;0.70;;;0.70;;
29200;SDS011;16244;51.956;12.980;2023-09-19T08:20:02;1.33;;;0.70;;
29200;SDS011;16244;51.956;12.980;2023-09-19T08:22:31;4.13;;;0.70;;
29200;SDS011;16244;51.956;12.980;2023-09-19T08:24:59;3.20;;;1.10;;
29200;SDS011;16244;51.956;12.980;2023-09-19T08:27:30;0.53;;;0.53;;
29200;SDS011;16244;51.956;12.980;2023-09-19T08:29:58;1.90;;;0.70;;
29200;SDS011;16244;51.956;12.980;2023-09-19T08:32:26;0.90;;;0.90;;
29200;SDS011;16244;51.956;12.980;2023-09-19T08:34:55;1.33;;;0.60;;
29200;SDS011;16244;51.956;12.980;2023-09-19T08:37:22;1.87;;;0.70;;
29200;SDS011;16244;51.956;12.980;2023-09-19T08:39:50;1.00;;;0.77;;
29200;SDS011;16244;51.956;12.980;2023-09-19T08:42:18;1.47;;;1.37;;
29200;SDS011;16244;51.956;12.980;2023-09-19T08:44:47;0.70;;;0.70;;
29200;SDS011;16244;51.956;12.980;2023-09-19T08:47:15;1.53;;;1.43;;
29200;SDS011;16244;51.956;12.980;2023-09-19T08:49:46;1.10;;;0.90;;
29200;SDS011;16244;51.956;12.980;2023-09-19T08:52:22;0.90;;;0.70;;
29200;SDS011;16244;51.956;12.980;2023-09-19T08:54:52;1.63;;;1.63;;
29200;SDS011;16244;51.956;12.980;2023-09-19T08:57:27;1.33;;;1.13;;
29200;SDS011;16244;51.956;12.980;2023-09-19T08:59:56;0.83;;;0.70;;
29200;SDS011;16244;51.956;12.980;2023-09-19T09:02:25;0.53;;;0.53;;
29200;SDS011;16244;51.956;12.980;2023-09-19T09:04:54;1.37;;;1.17;;
29200;SDS011;16244;51.956;12.980;2023-09-19T09:07:24;0.90;;;0.50;;
29200;SDS011;16244;51.956;12.980;2023-09-19T09:09:53;0.80;;;0.70;;
29200;SDS011;16244;51.956;12.980;2023-09-19T09:12:21;1.10;;;1.00;;
29200;SDS011;16244;51.956;12.980;2023-09-19T09:14:49;2.23;;;0.77;;
29200;SDS011;16244;51.956;12.980;2023-09-19T09:17:18;1.27;;;0.83;;
29200;SDS011;16244;51.956;12.980;2023-09-19T09:19:46;0.80;;;0.80;;
29200;SDS011;16244;51.956;12.980;2023-09-19T09:22:14;1.30;;;0.77;;
29200;SDS011;16244;51.956;12.980;2023-09-19T09:24:52;1.23;;;0.80;;
29200;SDS011;16244;51.956;12.980;2023-09-19T09:27:21;0.80;;;0.80;;
29200;SDS011;16244;51.956;12.980;2023-09-19T09:29:51;2.40;;;1.23;;
29200;SDS011;16244;51.956;12.980;2023-09-19T09:32:21;1.63;;;0.80;;
29200;SDS011;16244;51.956;12.980;2023-09-19T09:34:52;4.00;;;1.20;;
29200;SDS011;16244;51.956;12.980;2023-09-19T09:37:22;0.70;;;0.70;;
29200;SDS011;16244;51.956;12.980;2023-09-19T09:39:52;1.77;;;0.80;;
29200;SDS011;16244;51.956;12.980;2023-09-19T09:42:29;1.13;;;0.70;;
29200;SDS011;16244;51.956;12.980;2023-09-19T09:45:12;0.87;;;0.77;;
29200;SDS011;16244;51.956;12.980;2023-09-19T09:47:46;1.20;;;0.97;;
29200;SDS011;16244;51.956;12.980;2023-09-19T09:50:23;2.27;;;0.80;;
29200;SDS011;16244;51.956;12.980;2023-09-19T09:52:55;1.17;;;1.03;;
29200;SDS011;16244;51.956;12.980;2023-09-19T09:55:56;1.17;;;0.80;;
29200;SDS011;16244;51.956;12.980;2023-09-19T09:58:25;0.70;;;0.70;;
29200;SDS011;16244;51.956;12.980;2023-09-19T10:00:55;0.83;;;0.73;;
29200;SDS011;16244;51.956;12.980;2023-09-19T10:03:33;6.00;;;1.00;;
29200;SDS011;16244;51.956;12.980;2023-09-19T10:06:06;0.80;;;0.80;;
29200;SDS011;16244;51.956;12.980;2023-09-19T10:08:57;1.27;;;0.80;;
29200;SDS011;16244;51.956;12.980;2023-09-19T10:11:33;1.07;;;0.90;;
29200;SDS011;16244;51.956;12.980;2023-09-19T10:14:03;1.33;;;1.00;;
29200;SDS011;16244;51.956;12.980;2023-09-19T10:16:35;2.53;;;0.90;;
29200;SDS011;16244;51.956;12.980;2023-09-19T10:19:07;1.03;;;1.00;;
29200;SDS011;16244;51.956;12.980;2023-09-19T10:21:36;0.87;;;0.63;;
29200;SDS011;16244;51.956;12.980;2023-09-19T10:24:05;2.53;;;0.83;;
29200;SDS011;16244;51.956;12.980;2023-09-19T10:26:36;3.43;;;1.07;;
29200;SDS011;16244;51.956;12.980;2023-09-19T10:29:06;0.70;;;0.70;;
29200;SDS011;16244;51.956;12.980;2023-09-19T10:31:35;3.80;;;2.10;;
29200;SDS011;16244;51.956;12.980;2023-09-19T10:34:06;2.00;;;1.00;;
29200;SDS011;16244;51.956;12.980;2023-09-19T10:36:36;1.20;;;0.87;;
29200;SDS011;16244;51.956;12.980;2023-09-19T10:39:08;1.03;;;0.93;;
29200;SDS011;16244;51.956;12.980;2023-09-19T10:41:39;1.73;;;0.80;;
29200;SDS011;16244;51.956;12.980;2023-09-19T10:44:07;1.20;;;1.20;;
29200;SDS011;16244;51.956;12.980;2023-09-19T10:46:35;0.90;;;0.90;;
29200;SDS011;16244;51.956;12.980;2023-09-19T10:49:04;1.20;;;1.00;;
29200;SDS011;16244;51.956;12.980;2023-09-19T10:51:37;1.43;;;1.43;;
29200;SDS011;16244;51.956;12.980;2023-09-19T10:54:10;1.13;;;0.83;;
29200;SDS011;16244;51.956;12.980;2023-09-19T10:56:42;1.80;;;1.70;;
29200;SDS011;16244;51.956;12.980;2023-09-19T10:59:15;1.47;;;1.40;;
29200;SDS011;16244;51.956;12.980;2023-09-19T11:01:44;1.40;;;1.30;;
29200;SDS011;16244;51.956;12.980;2023-09-19T11:04:20;2.20;;;1.10;;
29200;SDS011;16244;51.956;12.980;2023-09-19T11:06:59;1.33;;;1.20;;
29200;SDS011;16244;51.956;12.980;2023-09-19T11:09:45;1.53;;;1.53;;
29200;SDS011;16244;51.956;12.980;2023-09-19T11:18:51;1.87;;;1.73;;
29200;SDS011;16244;51.956;12.980;2023-09-19T11:21:41;1.90;;;1.73;;
29200;SDS011;16244;51.956;12.980;2023-09-19T11:24:30;1.77;;;1.67;;
29200;SDS011;16244;51.956;12.980;2023-09-19T11:27:12;1.30;;;1.30;;
29200;SDS011;16244;51.956;12.980;2023-09-19T11:29:44;2.00;;;1.20;;
29200;SDS011;16244;51.956;12.980;2023-09-19T11:32:13;1.00;;;1.00;;
29200;SDS011;16244;51.956;12.980;2023-09-19T11:34:45;2.20;;;1.13;;
29200;SDS011;16244;51.956;12.980;2023-09-19T11:40:32;1.43;;;0.87;;
29200;SDS011;16244;51.956;12.980;2023-09-19T11:46:07;4.20;;;1.30;;
29200;SDS011;16244;51.956;12.980;2023-09-19T11:48:39;1.33;;;1.00;;
29200;SDS011;16244;51.956;12.980;2023-09-19T11:51:15;2.50;;;0.87;;
29200;SDS011;16244;51.956;12.980;2023-09-19T11:53:48;2.13;;;1.00;;
29200;SDS011;16244;51.956;12.980;2023-09-19T11:56:17;1.03;;;0.80;;
29200;SDS011;16244;51.956;12.980;2023-09-19T11:58:46;0.80;;;0.80;;
29200;SDS011;16244;51.956;12.980;2023-09-19T12:01:21;1.00;;;0.70;;
29200;SDS011;16244;51.956;12.980;2023-09-19T12:03:52;1.23;;;1.13;;
29200;SDS011;16244;51.956;12.980;2023-09-19T12:06:22;1.20;;;1.10;;
29200;SDS011;16244;51.956;12.980;2023-09-19T12:08:51;0.97;;;0.67;;
29200;SDS011;16244;51.956;12.980;2023-09-19T12:11:21;0.87;;;0.87;;
29200;SDS011;16244;51.956;12.980;2023-09-19T12:13:50;4.47;;;1.23;;
29200;SDS011;16244;51.956;12.980;2023-09-19T12:16:20;1.93;;;0.50;;
29200;SDS011;16244;51.956;12.980;2023-09-19T12:18:49;0.70;;;0.60;;
29200;SDS011;16244;51.956;12.980;2023-09-19T12:21:27;0.70;;;0.70;;
29200;SDS011;16244;51.956;12.980;2023-09-19T12:24:06;4.40;;;0.77;;
29200;SDS011;16244;51.956;12.980;2023-09-19T12:26:39;3.13;;;0.70;;
29200;SDS011;16244;51.956;12.980;2023-09-19T12:29:12;0.77;;;0.70;;
29200;SDS011;16244;51.956;12.980;2023-09-19T12:31:49;0.90;;;0.77;;
29200;SDS011;16244;51.956;12.980;2023-09-19T12:34:19;0.60;;;0.60;;
29200;SDS011;16244;51.956;12.980;2023-09-19T12:37:05;0.60;;;0.60;;
29200;SDS011;16244;51.956;12.980;2023-09-19T12:39:40;0.60;;;0.60;;
29200;SDS011;16244;51.956;12.980;2023-09-19T12:42:10;0.60;;;0.60;;
29200;SDS011;16244;51.956;12.980;2023-09-19T12:44:40;0.70;;;0.60;;
29200;SDS011;16244;51.956;12.980;2023-09-19T12:47:14;1.37;;;0.70;;
29200;SDS011;16244;51.956;12.980;2023-09-19T12:50:05;1.60;;;0.70;;
29200;SDS011;16244;51.956;12.980;2023-09-19T12:52:39;0.60;;;0.60;;
29200;SDS011;16244;51.956;12.980;2023-09-19T12:55:07;1.30;;;0.60;;
29200;SDS011;16244;51.956;12.980;2023-09-19T12:57:54;1.43;;;0.80;;
29200;SDS011;16244;51.956;12.980;2023-09-19T13:00:30;1.23;;;1.03;;
29200;SDS011;16244;51.956;12.980;2023-09-19T13:03:14;0.87;;;0.87;;
29200;SDS011;16244;51.956;12.980;2023-09-19T13:05:52;0.77;;;0.60;;
29200;SDS011;16244;51.956;12.980;2023-09-19T13:08:23;0.80;;;0.80;;
29200;SDS011;16244;51.956;12.980;2023-09-19T13:11:01;0.90;;;0.70;;
29200;SDS011;16244;51.956;12.980;2023-09-19T13:13:29;1.87;;;1.00;;
29200;SDS011;16244;51.956;12.980;2023-09-19T13:15:57;2.00;;;0.60;;
29200;SDS011;16244;51.956;12.980;2023-09-19T13:18:28;0.70;;;0.70;;
29200;SDS011;16244;51.956;12.980;2023-09-19T13:21:06;0.60;;;0.60;;
29200;SDS011;16244;51.956;12.980;2023-09-19T13:23:36;0.80;;;0.70;;
29200;SDS011;16244;51.956;12.980;2023-09-19T13:26:04;1.10;;;0.50;;
29200;SDS011;16244;51.956;12.980;2023-09-19T13:28:33;0.70;;;0.70;;
29200;SDS011;16244;51.956;12.980;2023-09-19T13:31:01;1.37;;;0.80;;
29200;SDS011;16244;51.956;12.980;2023-09-19T13:33:29;2.00;;;0.50;;
29200;SDS011;16244;51.956;12.980;2023-09-19T13:35:57;0.77;;;0.77;;
29200;SDS011;16244;51.956;12.980;2023-09-19T13:38:25;3.83;;;0.67;;
29200;SDS011;16244;51.956;12.980;2023-09-19T13:40:52;2.00;;;0.67;;
29200;SDS011;16244;51.956;12.980;2023-09-19T13:43:20;0.93;;;0.70;;
29200;SDS011;16244;51.956;12.980;2023-09-19T13:45:48;1.03;;;0.80;;
29200;SDS011;16244;51.956;12.980;2023-09-19T13:48:16;0.80;;;0.60;;
29200;SDS011;16244;51.956;12.980;2023-09-19T13:50:47;4.50;;;0.70;;
29200;SDS011;16244;51.956;12.980;2023-09-19T13:53:15;0.60;;;0.60;;
29200;SDS011;16244;51.956;12.980;2023-09-19T13:55:43;0.70;;;0.70;;
29200;SDS011;16244;51.956;12.980;2023-09-19T13:58:11;0.70;;;0.70;;
29200;SDS011;16244;51.956;12.980;2023-09-19T14:00:38;1.00;;;0.80;;
29200;SDS011;16244;51.956;12.980;2023-09-19T14:03:06;1.83;;;1.73;;
29200;SDS011;16244;51.956;12.980;2023-09-19T14:05:34;1.63;;;1.00;;
29200;SDS011;16244;51.956;12.980;2023-09-19T14:08:03;1.67;;;0.70;;
29200;SDS011;16244;51.956;12.980;2023-09-19T14:10:31;1.23;;;0.80;;
29200;SDS011;16244;51.956;12.980;2023-09-19T14:12:59;0.93;;;0.93;;
29200;SDS011;16244;51.956;12.980;2023-09-19T14:15:26;0.67;;;0.60;;
29200;SDS011;16244;51.956;12.980;2023-09-19T14:17:56;0.90;;;0.90;;
29200;SDS011;16244;51.956;12.980;2023-09-19T14:20:25;0.70;;;0.70;;
29200;SDS011;16244;51.956;12.980;2023-09-19T14:22:53;0.90;;;0.90;;
29200;SDS011;16244;51.956;12.980;2023-09-19T14:25:23;3.30;;;0.77;;
29200;SDS011;16244;51.956;12.980;2023-09-19T14:27:51;1.50;;;0.80;;
29200;SDS011;16244;51.956;12.980;2023-09-19T14:30:19;1.00;;;0.90;;
29200;SDS011;16244;51.956;12.980;2023-09-19T14:32:47;2.30;;;0.80;;
29200;SDS011;16244;51.956;12.980;2023-09-19T14:35:14;2.43;;;1.07;;
29200;SDS011;16244;51.956;12.980;2023-09-19T14:37:42;2.20;;;0.90;;
29200;SDS011;16244;51.956;12.980;2023-09-19T14:40:11;1.53;;;0.80;;
29200;SDS011;16244;51.956;12.980;2023-09-19T14:42:43;1.93;;;1.13;;
29200;SDS011;16244;51.956;12.980;2023-09-19T14:45:11;1.07;;;0.90;;
29200;SDS011;16244;51.956;12.980;2023-09-19T14:47:40;1.10;;;0.87;;
29200;SDS011;16244;51.956;12.980;2023-09-19T14:50:08;3.73;;;0.90;;
29200;SDS011;16244;51.956;12.980;2023-09-19T14:52:38;1.50;;;0.70;;